createdAt,value
2022-07-26T00:01:36.729Z,21.50
2022-07-26T00:06:39.246Z,21.50
2022-07-26T00:11:41.114Z,21.40
2022-07-26T00:16:43.116Z,21.50
2022-07-26T00:21:45.594Z,21.70
2022-07-26T00:26:47.434Z,21.70
2022-07-26T00:31:49.330Z,21.70
2022-07-26T00:36:51.155Z,21.70
2022-07-26T00:41:52.891Z,21.70
2022-07-26T00:46:54.937Z,21.70
2022-07-26T00:51:56.705Z,21.80
2022-07-26T00:56:58.863Z,21.80
2022-07-26T01:02:01.390Z,21.80
2022-07-26T01:07:15.324Z,21.90
2022-07-26T01:12:18.283Z,21.90
2022-07-26T01:17:19.995Z,21.80
2022-07-26T01:22:21.829Z,21.80
2022-07-26T01:27:23.944Z,21.90
2022-07-26T01:32:25.729Z,21.90
2022-07-26T01:37:27.535Z,21.90
2022-07-26T01:42:29.342Z,21.90
2022-07-26T01:47:31.209Z,21.80
2022-07-26T01:52:33.421Z,21.90
2022-07-26T01:57:35.223Z,21.90
2022-07-26T02:02:37.168Z,22.00
2022-07-26T02:07:42.834Z,22.00
2022-07-26T02:12:46.384Z,21.90
2022-07-26T02:17:48.093Z,21.60
2022-07-26T02:22:49.800Z,21.50
2022-07-26T02:27:51.477Z,21.30
2022-07-26T02:32:53.307Z,21.30
2022-07-26T02:37:54.976Z,21.20
2022-07-26T02:42:56.837Z,21.10
2022-07-26T02:47:58.906Z,21.00
2022-07-26T02:53:00.811Z,21.00
2022-07-26T02:58:02.532Z,20.90
2022-07-26T03:03:04.290Z,20.80
2022-07-26T03:08:07.091Z,20.70
2022-07-26T03:13:08.904Z,20.60
2022-07-26T03:18:10.652Z,20.50
2022-07-26T03:23:12.352Z,20.40
2022-07-26T03:28:19.136Z,20.30
2022-07-26T03:33:21.371Z,20.20
2022-07-26T03:38:23.092Z,20.10
2022-07-26T03:43:24.775Z,20.10
2022-07-26T03:48:27.142Z,20.00
2022-07-26T03:53:29.004Z,20.00
2022-07-26T03:58:30.755Z,19.90
2022-07-26T04:03:32.523Z,19.90
2022-07-26T04:08:34.242Z,19.90
2022-07-26T04:13:36.657Z,19.90
2022-07-26T04:18:38.436Z,20.00
2022-07-26T04:23:40.098Z,20.00
2022-07-26T04:28:42.680Z,20.00
2022-07-26T04:33:44.511Z,20.00
2022-07-26T04:38:46.267Z,20.10
2022-07-26T04:43:48.023Z,20.20
2022-07-26T04:48:49.898Z,20.20
2022-07-26T04:53:51.817Z,20.20
2022-07-26T04:58:53.537Z,20.10
2022-07-26T05:03:55.247Z,20.10
2022-07-26T05:08:56.973Z,20.00
2022-07-26T05:13:58.778Z,20.10
2022-07-26T05:19:00.533Z,20.20
2022-07-26T05:24:02.310Z,20.20
2022-07-26T05:29:04.177Z,20.30
2022-07-26T05:34:06.289Z,20.70
2022-07-26T05:39:10.594Z,20.90
2022-07-26T05:44:15.954Z,21.10
2022-07-26T05:49:20.435Z,21.10
2022-07-26T05:54:23.052Z,21.30
2022-07-26T05:59:25.033Z,21.40
2022-07-26T06:04:27.517Z,21.60
2022-07-26T06:09:29.358Z,21.80
2022-07-26T06:14:31.155Z,21.90
2022-07-26T06:19:33.152Z,22.00
2022-07-26T06:24:34.931Z,21.90
2022-07-26T06:29:36.724Z,22.10
2022-07-26T06:34:38.557Z,22.00
2022-07-26T06:39:40.304Z,22.30
2022-07-26T06:44:42.181Z,22.40
2022-07-26T06:49:44.783Z,21.80
2022-07-26T06:54:46.568Z,21.70
2022-07-26T06:59:48.348Z,21.60
2022-07-26T07:04:50.125Z,21.50
2022-07-26T07:09:51.872Z,21.40
2022-07-26T07:14:53.588Z,21.50
2022-07-26T07:19:55.411Z,21.50
2022-07-26T07:24:57.684Z,21.60
2022-07-26T07:29:59.391Z,22.00
2022-07-26T07:35:01.120Z,22.20
2022-07-26T07:40:09.941Z,22.20
2022-07-26T07:45:11.871Z,22.10
2022-07-26T07:50:13.666Z,22.10
2022-07-26T07:55:36.697Z,22.00
2022-07-26T08:00:37.471Z,22.00
2022-07-26T08:05:40.343Z,22.00
2022-07-26T08:10:51.464Z,22.10
2022-07-26T08:15:55.817Z,22.10
2022-07-26T08:20:57.996Z,22.10
2022-07-26T08:26:04.726Z,22.10
2022-07-26T08:31:08.542Z,22.20
2022-07-26T08:36:10.271Z,22.40
2022-07-26T08:41:12.114Z,22.60
2022-07-26T08:46:14.331Z,22.60
2022-07-26T08:51:17.336Z,22.90
2022-07-26T08:56:19.044Z,22.80
2022-07-26T09:01:21.069Z,22.90
2022-07-26T09:06:28.170Z,22.60
2022-07-26T09:11:32.215Z,22.80
2022-07-26T09:16:39.215Z,23.20
2022-07-26T09:21:41.558Z,23.60
2022-07-26T09:26:55.875Z,23.90
2022-07-26T09:32:11.133Z,23.80
2022-07-26T09:37:13.356Z,23.40
2022-07-26T09:42:28.531Z,23.10
2022-07-26T09:47:39.208Z,23.30
2022-07-26T09:52:41.146Z,23.40
2022-07-26T09:57:42.876Z,23.90
2022-07-26T10:02:44.775Z,24.30
2022-07-26T10:07:46.649Z,24.30
2022-07-26T10:12:51.545Z,24.20
2022-07-26T10:17:54.520Z,24.00
2022-07-26T10:22:56.205Z,24.30
2022-07-26T10:27:58.413Z,24.40
2022-07-26T10:33:08.979Z,25.00
2022-07-26T10:38:27.335Z,25.20
2022-07-26T10:43:40.795Z,25.50
2022-07-26T10:48:57.242Z,25.20
2022-07-26T10:54:07.285Z,25.60
2022-07-26T10:59:09.378Z,24.90
2022-07-26T11:04:21.953Z,25.00
2022-07-26T11:09:23.673Z,24.70
2022-07-26T11:14:26.352Z,24.70
2022-07-26T11:19:29.306Z,24.70
2022-07-26T11:24:31.760Z,25.00
2022-07-26T11:29:38.246Z,25.00
2022-07-26T11:34:44.921Z,25.20
2022-07-26T11:39:47.385Z,25.40
2022-07-26T11:44:50.737Z,26.10
2022-07-26T11:50:11.605Z,26.50
2022-07-26T11:55:14.487Z,26.60
2022-07-26T12:00:18.205Z,26.30
2022-07-26T12:05:23.437Z,25.80
2022-07-26T12:10:26.322Z,25.90
2022-07-26T12:15:28.684Z,25.60
2022-07-26T12:20:30.615Z,25.50
2022-07-26T12:25:32.800Z,25.20
2022-07-26T12:30:37.472Z,25.10
2022-07-26T12:35:39.383Z,24.70
2022-07-26T12:40:41.952Z,24.80
2022-07-26T12:45:43.888Z,25.00
2022-07-26T12:50:45.809Z,24.90
2022-07-26T12:55:47.591Z,24.80
2022-07-26T13:00:49.513Z,25.00
2022-07-26T13:05:51.276Z,25.30
2022-07-26T13:10:56.788Z,25.60
2022-07-26T13:16:01.708Z,25.60
2022-07-26T13:21:03.423Z,25.80
2022-07-26T13:26:09.139Z,26.70
2022-07-26T13:31:12.749Z,26.70
2022-07-26T13:36:14.652Z,23.90
2022-07-26T13:41:17.357Z,23.20
2022-07-26T13:46:21.172Z,22.60
2022-07-26T13:51:23.093Z,22.10
2022-07-26T13:56:24.919Z,22.10
2022-07-26T14:01:44.532Z,21.80
2022-07-26T14:06:47.409Z,22.00
2022-07-26T14:11:49.435Z,22.30
2022-07-26T14:16:51.330Z,22.30
2022-07-26T14:21:59.268Z,22.70
2022-07-26T14:27:02.977Z,22.70
2022-07-26T14:32:05.275Z,23.00
2022-07-26T14:37:09.022Z,23.10
2022-07-26T14:42:29.393Z,23.30
2022-07-26T14:47:31.125Z,23.30
2022-07-26T14:52:32.877Z,23.00
2022-07-26T14:57:39.071Z,23.60
2022-07-26T15:02:43.579Z,23.30
2022-07-26T15:07:45.849Z,23.40
2022-07-26T15:12:47.736Z,23.90
2022-07-26T15:17:49.674Z,23.30
2022-07-26T15:22:54.507Z,23.70
2022-07-26T15:27:56.255Z,23.60
2022-07-26T15:32:58.910Z,24.00
2022-07-26T15:38:01.585Z,24.30
2022-07-26T15:43:03.357Z,24.00
2022-07-26T15:48:14.943Z,24.20
2022-07-26T15:53:19.362Z,23.80
2022-07-26T15:58:21.217Z,24.30
2022-07-26T16:03:22.946Z,24.20
2022-07-26T16:08:24.683Z,23.80
2022-07-26T16:13:26.436Z,23.90
2022-07-26T16:18:28.131Z,24.50
2022-07-26T16:23:30.157Z,25.90
2022-07-26T16:28:32.121Z,25.20
2022-07-26T16:33:33.880Z,25.10
2022-07-26T16:38:35.950Z,25.30
2022-07-26T16:43:38.231Z,24.90
2022-07-26T16:48:40.167Z,24.80
2022-07-26T16:53:42.155Z,24.20
2022-07-26T16:58:44.868Z,24.10
2022-07-26T17:03:46.668Z,23.90
2022-07-26T17:08:48.415Z,23.80
2022-07-26T17:13:50.193Z,23.60
2022-07-26T17:18:53.089Z,23.30
2022-07-26T17:23:54.926Z,23.10
2022-07-26T17:28:57.155Z,23.10
2022-07-26T17:33:59.103Z,22.80
2022-07-26T17:39:02.425Z,22.60
2022-07-26T17:44:04.830Z,22.60
2022-07-26T17:49:06.642Z,22.50
2022-07-26T17:54:08.968Z,22.50
2022-07-26T17:59:12.906Z,22.60
2022-07-26T18:04:17.126Z,22.50
2022-07-26T18:09:18.862Z,22.80
2022-07-26T18:14:20.714Z,22.70
2022-07-26T18:19:23.167Z,22.80
2022-07-26T18:24:25.694Z,22.50
2022-07-26T18:29:28.046Z,22.30
2022-07-26T18:34:29.816Z,22.10
2022-07-26T18:39:32.853Z,22.10
2022-07-26T18:44:37.944Z,22.20
2022-07-26T18:49:39.868Z,22.10
2022-07-26T18:54:42.227Z,22.00
2022-07-26T18:59:44.046Z,21.80
2022-07-26T19:04:45.782Z,21.70
2022-07-26T19:09:47.525Z,21.50
2022-07-26T19:14:50.026Z,21.40
2022-07-26T19:19:52.913Z,21.30
2022-07-26T19:24:56.524Z,21.10
2022-07-26T19:29:58.204Z,21.00
2022-07-26T19:35:00.139Z,20.90
2022-07-26T19:40:03.682Z,20.90
2022-07-26T19:45:06.348Z,20.90
2022-07-26T19:50:10.097Z,20.90
2022-07-26T19:55:11.856Z,20.80
2022-07-26T20:00:14.028Z,20.70
2022-07-26T20:05:16.121Z,20.60
2022-07-26T20:10:17.881Z,20.50
2022-07-26T20:15:22.447Z,20.60
2022-07-26T20:20:24.233Z,20.50
2022-07-26T20:25:26.297Z,20.50
2022-07-26T20:30:28.297Z,20.40
2022-07-26T20:35:31.393Z,20.30
2022-07-26T20:40:33.219Z,20.30
2022-07-26T20:45:35.905Z,20.20
2022-07-26T20:50:38.075Z,20.10
2022-07-26T20:55:40.540Z,20.10
2022-07-26T21:00:42.298Z,20.10
2022-07-26T21:05:44.964Z,20.00
2022-07-26T21:10:47.664Z,20.10
2022-07-26T21:15:51.265Z,20.00
2022-07-26T21:20:53.244Z,19.90
2022-07-26T21:26:00.456Z,20.00
2022-07-26T21:31:02.839Z,20.00
2022-07-26T21:36:04.936Z,20.00
2022-07-26T21:41:06.700Z,20.00
2022-07-26T21:46:12.584Z,19.90
2022-07-26T21:51:14.977Z,19.80
2022-07-26T21:56:16.690Z,19.70
2022-07-26T22:01:18.617Z,19.70
2022-07-26T22:06:20.652Z,19.80
2022-07-26T22:11:22.452Z,19.80
2022-07-26T22:16:24.225Z,19.70
2022-07-26T22:21:25.968Z,19.80
2022-07-26T22:26:31.164Z,19.80
2022-07-26T22:31:32.990Z,19.70
2022-07-26T22:36:34.782Z,19.60
2022-07-26T22:41:57.647Z,19.60
2022-07-26T22:46:58.200Z,19.60
2022-07-26T22:51:59.959Z,19.50
2022-07-26T22:57:01.762Z,19.40
2022-07-26T23:02:04.175Z,19.20
2022-07-26T23:07:05.890Z,19.30
2022-07-26T23:12:07.960Z,19.20
2022-07-26T23:17:09.664Z,19.10
2022-07-26T23:22:11.628Z,19.00
2022-07-26T23:27:18.061Z,19.10
2022-07-26T23:32:21.660Z,18.90
2022-07-26T23:37:23.369Z,18.90
2022-07-26T23:42:25.098Z,18.90
2022-07-26T23:47:27.001Z,18.90
2022-07-26T23:52:28.730Z,18.80
2022-07-26T23:57:30.445Z,18.80
